sensor_id;sensor_type;location;lat;lon;timestamp;temperature;humidity
15426;DHT22;7812;50.072;7.036;2024-02-04T00:02:23;9.20;99.90
15426;DHT22;7812;50.072;7.036;2024-02-04T00:04:51;9.20;99.90
15426;DHT22;7812;50.072;7.036;2024-02-04T00:07:17;9.20;99.90
15426;DHT22;7812;50.072;7.036;2024-02-04T00:09:42;9.20;99.90
15426;DHT22;7812;50.072;7.036;2024-02-04T00:12:10;9.20;99.90
15426;DHT22;7812;50.072;7.036;2024-02-04T00:14:35;9.30;99.90
15426;DHT22;7812;50.072;7.036;2024-02-04T00:17:02;9.30;99.90
15426;DHT22;7812;50.072;7.036;2024-02-04T00:19:27;9.30;99.90
15426;DHT22;7812;50.072;7.036;2024-02-04T00:21:53;9.30;99.90
15426;DHT22;7812;50.072;7.036;2024-02-04T00:24:19;9.30;99.90
15426;DHT22;7812;50.072;7.036;2024-02-04T00:26:45;9.20;99.90
15426;DHT22;7812;50.072;7.036;2024-02-04T00:29:11;9.20;99.90
15426;DHT22;7812;50.072;7.036;2024-02-04T00:31:37;9.20;99.90
15426;DHT22;7812;50.072;7.036;2024-02-04T00:34:03;9.20;99.90
15426;DHT22;7812;50.072;7.036;2024-02-04T00:36:30;9.20;99.90
15426;DHT22;7812;50.072;7.036;2024-02-04T00:38:56;9.20;99.90
15426;DHT22;7812;50.072;7.036;2024-02-04T00:41:22;9.20;99.90
15426;DHT22;7812;50.072;7.036;2024-02-04T00:43:48;9.20;99.90
15426;DHT22;7812;50.072;7.036;2024-02-04T00:46:14;9.20;99.90
15426;DHT22;7812;50.072;7.036;2024-02-04T00:48:40;9.20;99.90
15426;DHT22;7812;50.072;7.036;2024-02-04T00:51:06;9.10;99.90
15426;DHT22;7812;50.072;7.036;2024-02-04T00:53:32;9.10;99.90
15426;DHT22;7812;50.072;7.036;2024-02-04T00:56:04;9.10;99.90
15426;DHT22;7812;50.072;7.036;2024-02-04T00:58:30;9.20;99.90
15426;DHT22;7812;50.072;7.036;2024-02-04T01:00:56;9.20;99.90
15426;DHT22;7812;50.072;7.036;2024-02-04T01:03:22;9.20;99.90
15426;DHT22;7812;50.072;7.036;2024-02-04T01:05:48;9.30;99.90
15426;DHT22;7812;50.072;7.036;2024-02-04T01:08:13;9.20;99.90
15426;DHT22;7812;50.072;7.036;2024-02-04T01:10:39;9.20;99.90
15426;DHT22;7812;50.072;7.036;2024-02-04T01:13:05;9.30;99.90
15426;DHT22;7812;50.072;7.036;2024-02-04T01:15:33;9.30;99.90
15426;DHT22;7812;50.072;7.036;2024-02-04T01:17:59;9.40;99.90
15426;DHT22;7812;50.072;7.036;2024-02-04T01:20:25;9.30;99.90
15426;DHT22;7812;50.072;7.036;2024-02-04T01:22:52;9.30;99.90
15426;DHT22;7812;50.072;7.036;2024-02-04T01:25:18;9.30;99.90
15426;DHT22;7812;50.072;7.036;2024-02-04T01:27:44;9.30;99.90
15426;DHT22;7812;50.072;7.036;2024-02-04T01:30:10;9.30;99.90
15426;DHT22;7812;50.072;7.036;2024-02-04T01:32:36;9.30;99.90
15426;DHT22;7812;50.072;7.036;2024-02-04T01:35:02;9.30;99.90
15426;DHT22;7812;50.072;7.036;2024-02-04T01:37:28;9.20;99.90
15426;DHT22;7812;50.072;7.036;2024-02-04T01:39:54;9.20;99.90
15426;DHT22;7812;50.072;7.036;2024-02-04T01:42:20;9.20;99.90
15426;DHT22;7812;50.072;7.036;2024-02-04T01:44:46;9.10;99.90
15426;DHT22;7812;50.072;7.036;2024-02-04T01:47:12;9.10;99.90
15426;DHT22;7812;50.072;7.036;2024-02-04T01:49:38;9.20;99.90
15426;DHT22;7812;50.072;7.036;2024-02-04T01:52:05;9.20;99.90
15426;DHT22;7812;50.072;7.036;2024-02-04T01:54:32;9.20;99.90
15426;DHT22;7812;50.072;7.036;2024-02-04T01:56:59;9.10;99.90
15426;DHT22;7812;50.072;7.036;2024-02-04T01:59:29;9.10;99.90
15426;DHT22;7812;50.072;7.036;2024-02-04T02:02:00;9.10;99.90
15426;DHT22;7812;50.072;7.036;2024-02-04T02:04:26;9.10;99.90
15426;DHT22;7812;50.072;7.036;2024-02-04T02:06:55;9.10;99.90
15426;DHT22;7812;50.072;7.036;2024-02-04T02:09:21;9.10;99.90
15426;DHT22;7812;50.072;7.036;2024-02-04T02:14:23;9.10;99.90
15426;DHT22;7812;50.072;7.036;2024-02-04T02:16:50;9.10;99.90
15426;DHT22;7812;50.072;7.036;2024-02-04T02:19:30;9.00;99.90
15426;DHT22;7812;50.072;7.036;2024-02-04T02:22:34;9.00;99.90
15426;DHT22;7812;50.072;7.036;2024-02-04T02:25:04;9.00;99.90
15426;DHT22;7812;50.072;7.036;2024-02-04T02:27:30;8.90;99.90
15426;DHT22;7812;50.072;7.036;2024-02-04T02:29:56;8.90;99.90
15426;DHT22;7812;50.072;7.036;2024-02-04T02:32:22;9.00;99.90
15426;DHT22;7812;50.072;7.036;2024-02-04T02:34:49;9.00;99.90
15426;DHT22;7812;50.072;7.036;2024-02-04T02:37:29;9.00;99.90
15426;DHT22;7812;50.072;7.036;2024-02-04T02:40:05;8.90;99.90
15426;DHT22;7812;50.072;7.036;2024-02-04T02:42:33;8.90;99.90
15426;DHT22;7812;50.072;7.036;2024-02-04T02:45:01;8.90;99.90
15426;DHT22;7812;50.072;7.036;2024-02-04T02:47:29;9.00;99.90
15426;DHT22;7812;50.072;7.036;2024-02-04T02:49:55;9.00;99.90
15426;DHT22;7812;50.072;7.036;2024-02-04T02:52:21;9.00;99.90
15426;DHT22;7812;50.072;7.036;2024-02-04T02:54:47;8.90;99.90
15426;DHT22;7812;50.072;7.036;2024-02-04T02:57:13;9.00;99.90
15426;DHT22;7812;50.072;7.036;2024-02-04T02:59:39;9.00;99.90
15426;DHT22;7812;50.072;7.036;2024-02-04T03:02:05;9.00;99.90
15426;DHT22;7812;50.072;7.036;2024-02-04T03:04:31;9.10;99.90
15426;DHT22;7812;50.072;7.036;2024-02-04T03:06:57;9.10;99.90
15426;DHT22;7812;50.072;7.036;2024-02-04T03:09:23;9.20;99.90
15426;DHT22;7812;50.072;7.036;2024-02-04T03:11:49;9.10;99.90
15426;DHT22;7812;50.072;7.036;2024-02-04T03:14:16;9.10;99.90
15426;DHT22;7812;50.072;7.036;2024-02-04T03:16:45;9.10;99.90
15426;DHT22;7812;50.072;7.036;2024-02-04T03:19:11;9.00;99.90
15426;DHT22;7812;50.072;7.036;2024-02-04T03:21:37;9.00;99.90
15426;DHT22;7812;50.072;7.036;2024-02-04T03:24:03;9.00;99.90
15426;DHT22;7812;50.072;7.036;2024-02-04T03:26:29;9.10;99.90
15426;DHT22;7812;50.072;7.036;2024-02-04T03:28:55;9.10;99.90
15426;DHT22;7812;50.072;7.036;2024-02-04T03:31:21;9.00;99.90
15426;DHT22;7812;50.072;7.036;2024-02-04T03:33:48;9.00;99.90
15426;DHT22;7812;50.072;7.036;2024-02-04T03:36:18;9.10;99.90
15426;DHT22;7812;50.072;7.036;2024-02-04T03:38:43;9.10;99.90
15426;DHT22;7812;50.072;7.036;2024-02-04T03:41:10;9.20;99.90
15426;DHT22;7812;50.072;7.036;2024-02-04T03:43:39;9.10;99.90
15426;DHT22;7812;50.072;7.036;2024-02-04T03:46:04;9.00;99.90
15426;DHT22;7812;50.072;7.036;2024-02-04T03:48:30;9.00;99.90
15426;DHT22;7812;50.072;7.036;2024-02-04T03:50:56;9.00;99.90
15426;DHT22;7812;50.072;7.036;2024-02-04T03:53:22;9.00;99.90
15426;DHT22;7812;50.072;7.036;2024-02-04T03:55:49;9.10;99.90
15426;DHT22;7812;50.072;7.036;2024-02-04T03:58:14;9.10;99.90
15426;DHT22;7812;50.072;7.036;2024-02-04T04:00:40;9.20;99.90
15426;DHT22;7812;50.072;7.036;2024-02-04T04:03:06;9.20;99.90
15426;DHT22;7812;50.072;7.036;2024-02-04T04:05:32;9.20;99.90
15426;DHT22;7812;50.072;7.036;2024-02-04T04:07:58;9.10;99.90
15426;DHT22;7812;50.072;7.036;2024-02-04T04:10:24;9.10;99.90
15426;DHT22;7812;50.072;7.036;2024-02-04T04:12:50;9.10;99.90
15426;DHT22;7812;50.072;7.036;2024-02-04T04:15:16;9.10;99.90
15426;DHT22;7812;50.072;7.036;2024-02-04T04:17:42;9.10;99.90
15426;DHT22;7812;50.072;7.036;2024-02-04T04:20:08;9.10;99.90
15426;DHT22;7812;50.072;7.036;2024-02-04T04:22:34;9.10;99.90
15426;DHT22;7812;50.072;7.036;2024-02-04T04:25:00;9.10;99.90
15426;DHT22;7812;50.072;7.036;2024-02-04T04:27:26;9.10;99.90
15426;DHT22;7812;50.072;7.036;2024-02-04T04:29:52;9.10;99.90
15426;DHT22;7812;50.072;7.036;2024-02-04T04:32:18;9.20;99.90
15426;DHT22;7812;50.072;7.036;2024-02-04T04:34:44;9.20;99.90
15426;DHT22;7812;50.072;7.036;2024-02-04T04:37:10;9.20;99.90
15426;DHT22;7812;50.072;7.036;2024-02-04T04:39:36;9.20;99.90
15426;DHT22;7812;50.072;7.036;2024-02-04T04:42:02;9.20;99.90
15426;DHT22;7812;50.072;7.036;2024-02-04T04:44:28;9.10;99.90
15426;DHT22;7812;50.072;7.036;2024-02-04T04:46:54;9.10;99.90
15426;DHT22;7812;50.072;7.036;2024-02-04T04:49:19;9.10;99.90
15426;DHT22;7812;50.072;7.036;2024-02-04T04:51:46;9.10;99.90
15426;DHT22;7812;50.072;7.036;2024-02-04T04:54:12;9.10;99.90
15426;DHT22;7812;50.072;7.036;2024-02-04T04:56:39;9.10;99.90
15426;DHT22;7812;50.072;7.036;2024-02-04T04:59:06;9.20;99.90
15426;DHT22;7812;50.072;7.036;2024-02-04T05:01:32;9.20;99.90
15426;DHT22;7812;50.072;7.036;2024-02-04T05:03:58;9.20;99.90
15426;DHT22;7812;50.072;7.036;2024-02-04T05:06:24;9.10;99.90
15426;DHT22;7812;50.072;7.036;2024-02-04T05:08:50;9.20;99.90
15426;DHT22;7812;50.072;7.036;2024-02-04T05:11:16;9.20;99.90
15426;DHT22;7812;50.072;7.036;2024-02-04T05:13:42;9.20;99.90
15426;DHT22;7812;50.072;7.036;2024-02-04T05:16:07;9.20;99.90
15426;DHT22;7812;50.072;7.036;2024-02-04T05:18:33;9.20;99.90
15426;DHT22;7812;50.072;7.036;2024-02-04T05:21:01;9.20;99.90
15426;DHT22;7812;50.072;7.036;2024-02-04T05:23:28;9.20;99.90
15426;DHT22;7812;50.072;7.036;2024-02-04T05:25:54;9.20;99.90
15426;DHT22;7812;50.072;7.036;2024-02-04T05:28:20;9.10;99.90
15426;DHT22;7812;50.072;7.036;2024-02-04T05:30:46;9.20;99.90
15426;DHT22;7812;50.072;7.036;2024-02-04T05:33:15;9.20;99.90
15426;DHT22;7812;50.072;7.036;2024-02-04T05:35:41;9.20;99.90
15426;DHT22;7812;50.072;7.036;2024-02-04T05:38:09;9.20;99.90
15426;DHT22;7812;50.072;7.036;2024-02-04T05:40:35;9.10;99.90
15426;DHT22;7812;50.072;7.036;2024-02-04T05:43:01;9.10;99.90
15426;DHT22;7812;50.072;7.036;2024-02-04T05:45:32;9.20;99.90
15426;DHT22;7812;50.072;7.036;2024-02-04T05:47:58;9.10;99.90
15426;DHT22;7812;50.072;7.036;2024-02-04T05:50:24;9.20;99.90
15426;DHT22;7812;50.072;7.036;2024-02-04T05:52:50;9.20;99.90
15426;DHT22;7812;50.072;7.036;2024-02-04T05:55:16;9.10;99.90
15426;DHT22;7812;50.072;7.036;2024-02-04T05:57:42;9.10;99.90
15426;DHT22;7812;50.072;7.036;2024-02-04T06:00:08;9.10;99.90
15426;DHT22;7812;50.072;7.036;2024-02-04T06:02:36;9.10;99.90
15426;DHT22;7812;50.072;7.036;2024-02-04T06:05:02;9.10;99.90
15426;DHT22;7812;50.072;7.036;2024-02-04T06:07:28;9.10;99.90
15426;DHT22;7812;50.072;7.036;2024-02-04T06:09:56;9.10;99.90
15426;DHT22;7812;50.072;7.036;2024-02-04T06:12:23;9.00;99.90
15426;DHT22;7812;50.072;7.036;2024-02-04T06:14:48;9.00;99.90
15426;DHT22;7812;50.072;7.036;2024-02-04T06:17:14;9.00;99.90
15426;DHT22;7812;50.072;7.036;2024-02-04T06:19:39;9.00;99.90
15426;DHT22;7812;50.072;7.036;2024-02-04T06:22:05;9.00;99.90
15426;DHT22;7812;50.072;7.036;2024-02-04T06:24:31;9.00;99.90
15426;DHT22;7812;50.072;7.036;2024-02-04T06:26:57;9.00;99.90
15426;DHT22;7812;50.072;7.036;2024-02-04T06:29:23;9.00;99.90
15426;DHT22;7812;50.072;7.036;2024-02-04T06:31:49;9.10;99.90
15426;DHT22;7812;50.072;7.036;2024-02-04T06:34:15;9.10;99.90
15426;DHT22;7812;50.072;7.036;2024-02-04T06:36:44;9.10;99.90
15426;DHT22;7812;50.072;7.036;2024-02-04T06:39:11;9.10;99.90
15426;DHT22;7812;50.072;7.036;2024-02-04T06:41:37;9.20;99.90
15426;DHT22;7812;50.072;7.036;2024-02-04T06:44:03;9.20;99.90
15426;DHT22;7812;50.072;7.036;2024-02-04T06:46:30;9.20;99.90
15426;DHT22;7812;50.072;7.036;2024-02-04T06:48:56;9.20;99.90
15426;DHT22;7812;50.072;7.036;2024-02-04T06:51:22;9.20;99.90
15426;DHT22;7812;50.072;7.036;2024-02-04T06:53:48;9.20;99.90
15426;DHT22;7812;50.072;7.036;2024-02-04T06:56:14;9.20;99.90
15426;DHT22;7812;50.072;7.036;2024-02-04T06:58:40;9.20;99.90
15426;DHT22;7812;50.072;7.036;2024-02-04T07:01:07;9.20;99.90
15426;DHT22;7812;50.072;7.036;2024-02-04T07:03:33;9.10;99.90
15426;DHT22;7812;50.072;7.036;2024-02-04T07:06:00;9.10;99.90
15426;DHT22;7812;50.072;7.036;2024-02-04T07:08:26;9.10;99.90
15426;DHT22;7812;50.072;7.036;2024-02-04T07:10:52;9.10;99.90
15426;DHT22;7812;50.072;7.036;2024-02-04T07:13:19;9.10;99.90
15426;DHT22;7812;50.072;7.036;2024-02-04T07:15:45;9.10;99.90
15426;DHT22;7812;50.072;7.036;2024-02-04T07:18:11;9.10;99.90
15426;DHT22;7812;50.072;7.036;2024-02-04T07:20:37;9.10;99.90
15426;DHT22;7812;50.072;7.036;2024-02-04T07:23:04;9.10;99.90
15426;DHT22;7812;50.072;7.036;2024-02-04T07:25:30;9.10;99.90
15426;DHT22;7812;50.072;7.036;2024-02-04T07:27:57;9.10;99.90
15426;DHT22;7812;50.072;7.036;2024-02-04T07:30:24;9.10;99.90
15426;DHT22;7812;50.072;7.036;2024-02-04T07:32:50;9.10;99.90
15426;DHT22;7812;50.072;7.036;2024-02-04T07:35:16;9.10;99.90
15426;DHT22;7812;50.072;7.036;2024-02-04T07:37:42;9.10;99.90
15426;DHT22;7812;50.072;7.036;2024-02-04T07:40:08;9.10;99.90
15426;DHT22;7812;50.072;7.036;2024-02-04T07:42:34;9.10;99.90
15426;DHT22;7812;50.072;7.036;2024-02-04T07:45:00;9.10;99.90
15426;DHT22;7812;50.072;7.036;2024-02-04T07:47:27;9.10;99.90
15426;DHT22;7812;50.072;7.036;2024-02-04T07:49:53;9.20;99.90
15426;DHT22;7812;50.072;7.036;2024-02-04T07:52:19;9.20;99.90
15426;DHT22;7812;50.072;7.036;2024-02-04T07:54:45;9.20;99.90
15426;DHT22;7812;50.072;7.036;2024-02-04T07:57:12;9.20;99.90
15426;DHT22;7812;50.072;7.036;2024-02-04T07:59:38;9.10;99.90
15426;DHT22;7812;50.072;7.036;2024-02-04T08:02:04;9.10;99.90
15426;DHT22;7812;50.072;7.036;2024-02-04T08:04:30;9.20;99.90
15426;DHT22;7812;50.072;7.036;2024-02-04T08:06:56;9.20;99.90
15426;DHT22;7812;50.072;7.036;2024-02-04T08:09:22;9.20;99.90
15426;DHT22;7812;50.072;7.036;2024-02-04T08:11:47;9.20;99.90
15426;DHT22;7812;50.072;7.036;2024-02-04T08:14:14;9.20;99.90
15426;DHT22;7812;50.072;7.036;2024-02-04T08:16:40;9.20;99.90
15426;DHT22;7812;50.072;7.036;2024-02-04T08:19:08;9.10;99.90
15426;DHT22;7812;50.072;7.036;2024-02-04T08:21:34;9.20;99.90
15426;DHT22;7812;50.072;7.036;2024-02-04T08:24:00;9.20;99.90
15426;DHT22;7812;50.072;7.036;2024-02-04T08:26:26;9.20;99.90
15426;DHT22;7812;50.072;7.036;2024-02-04T08:28:51;9.10;99.90
15426;DHT22;7812;50.072;7.036;2024-02-04T08:31:17;9.10;99.90
15426;DHT22;7812;50.072;7.036;2024-02-04T08:33:43;9.10;99.90
15426;DHT22;7812;50.072;7.036;2024-02-04T08:36:09;9.20;99.90
15426;DHT22;7812;50.072;7.036;2024-02-04T08:38:37;9.20;99.90
15426;DHT22;7812;50.072;7.036;2024-02-04T08:41:04;9.20;99.90
15426;DHT22;7812;50.072;7.036;2024-02-04T08:43:33;9.20;99.90
15426;DHT22;7812;50.072;7.036;2024-02-04T08:45:59;9.20;99.90
15426;DHT22;7812;50.072;7.036;2024-02-04T08:48:25;9.20;99.90
15426;DHT22;7812;50.072;7.036;2024-02-04T08:50:51;9.30;99.90
15426;DHT22;7812;50.072;7.036;2024-02-04T08:53:20;9.30;99.90
15426;DHT22;7812;50.072;7.036;2024-02-04T08:55:46;9.20;99.90
15426;DHT22;7812;50.072;7.036;2024-02-04T08:58:12;9.20;99.90
15426;DHT22;7812;50.072;7.036;2024-02-04T09:00:38;9.30;99.90
15426;DHT22;7812;50.072;7.036;2024-02-04T09:03:04;9.30;99.90
15426;DHT22;7812;50.072;7.036;2024-02-04T09:05:30;9.30;99.90
15426;DHT22;7812;50.072;7.036;2024-02-04T09:07:55;9.30;99.90
15426;DHT22;7812;50.072;7.036;2024-02-04T09:10:22;9.40;99.90
15426;DHT22;7812;50.072;7.036;2024-02-04T09:12:48;9.50;99.90
15426;DHT22;7812;50.072;7.036;2024-02-04T09:15:14;9.50;99.90
15426;DHT22;7812;50.072;7.036;2024-02-04T09:17:40;9.50;99.90
15426;DHT22;7812;50.072;7.036;2024-02-04T09:20:07;9.50;99.90
15426;DHT22;7812;50.072;7.036;2024-02-04T09:22:33;9.50;99.90
15426;DHT22;7812;50.072;7.036;2024-02-04T09:24:59;9.50;99.90
15426;DHT22;7812;50.072;7.036;2024-02-04T09:27:25;9.50;99.90
15426;DHT22;7812;50.072;7.036;2024-02-04T09:29:52;9.50;99.90
15426;DHT22;7812;50.072;7.036;2024-02-04T09:32:17;9.50;99.90
15426;DHT22;7812;50.072;7.036;2024-02-04T09:34:43;9.60;99.90
15426;DHT22;7812;50.072;7.036;2024-02-04T09:37:09;9.50;99.90
15426;DHT22;7812;50.072;7.036;2024-02-04T09:39:35;9.60;99.90
15426;DHT22;7812;50.072;7.036;2024-02-04T09:42:01;9.60;99.90
15426;DHT22;7812;50.072;7.036;2024-02-04T09:44:27;9.60;99.90
15426;DHT22;7812;50.072;7.036;2024-02-04T09:46:53;9.60;99.90
15426;DHT22;7812;50.072;7.036;2024-02-04T09:49:20;9.60;99.90
15426;DHT22;7812;50.072;7.036;2024-02-04T09:51:46;9.50;99.90
15426;DHT22;7812;50.072;7.036;2024-02-04T09:54:14;9.50;99.90
15426;DHT22;7812;50.072;7.036;2024-02-04T09:56:41;9.50;99.90
15426;DHT22;7812;50.072;7.036;2024-02-04T09:59:07;9.50;99.90
15426;DHT22;7812;50.072;7.036;2024-02-04T10:01:33;9.50;99.90
15426;DHT22;7812;50.072;7.036;2024-02-04T10:04:01;9.60;99.90
15426;DHT22;7812;50.072;7.036;2024-02-04T10:06:27;9.70;99.90
15426;DHT22;7812;50.072;7.036;2024-02-04T10:08:52;9.80;99.90
15426;DHT22;7812;50.072;7.036;2024-02-04T10:11:18;9.80;99.90
15426;DHT22;7812;50.072;7.036;2024-02-04T10:13:49;9.60;99.90
15426;DHT22;7812;50.072;7.036;2024-02-04T10:16:18;9.60;99.90
15426;DHT22;7812;50.072;7.036;2024-02-04T10:18:48;9.70;99.90
15426;DHT22;7812;50.072;7.036;2024-02-04T10:21:18;9.80;99.90
15426;DHT22;7812;50.072;7.036;2024-02-04T10:23:46;9.80;99.90
15426;DHT22;7812;50.072;7.036;2024-02-04T10:26:12;9.90;99.90
15426;DHT22;7812;50.072;7.036;2024-02-04T10:28:39;9.80;99.90
15426;DHT22;7812;50.072;7.036;2024-02-04T10:31:09;9.80;99.90
15426;DHT22;7812;50.072;7.036;2024-02-04T10:33:36;9.80;99.90
15426;DHT22;7812;50.072;7.036;2024-02-04T10:36:03;9.80;99.90
15426;DHT22;7812;50.072;7.036;2024-02-04T10:38:32;9.80;99.90
15426;DHT22;7812;50.072;7.036;2024-02-04T10:41:00;9.80;99.90
15426;DHT22;7812;50.072;7.036;2024-02-04T10:43:33;9.80;99.90
15426;DHT22;7812;50.072;7.036;2024-02-04T10:46:19;9.80;99.90
15426;DHT22;7812;50.072;7.036;2024-02-04T10:48:55;9.70;99.90
15426;DHT22;7812;50.072;7.036;2024-02-04T10:51:24;9.60;99.90
15426;DHT22;7812;50.072;7.036;2024-02-04T10:53:53;9.60;99.90
15426;DHT22;7812;50.072;7.036;2024-02-04T10:56:25;9.60;99.90
15426;DHT22;7812;50.072;7.036;2024-02-04T10:58:55;9.60;99.90
15426;DHT22;7812;50.072;7.036;2024-02-04T11:01:23;9.60;99.90
15426;DHT22;7812;50.072;7.036;2024-02-04T11:03:50;9.60;99.90
15426;DHT22;7812;50.072;7.036;2024-02-04T11:06:18;9.60;99.90
15426;DHT22;7812;50.072;7.036;2024-02-04T11:08:44;9.60;99.90
15426;DHT22;7812;50.072;7.036;2024-02-04T11:11:10;9.60;99.90
15426;DHT22;7812;50.072;7.036;2024-02-04T11:13:36;9.60;99.90
15426;DHT22;7812;50.072;7.036;2024-02-04T11:16:07;9.70;99.90
15426;DHT22;7812;50.072;7.036;2024-02-04T11:22:12;9.70;99.90
15426;DHT22;7812;50.072;7.036;2024-02-04T11:27:38;9.70;99.90
15426;DHT22;7812;50.072;7.036;2024-02-04T11:30:05;9.70;99.90
15426;DHT22;7812;50.072;7.036;2024-02-04T11:32:31;9.70;99.90
15426;DHT22;7812;50.072;7.036;2024-02-04T11:34:57;9.70;99.90
15426;DHT22;7812;50.072;7.036;2024-02-04T11:37:27;9.70;99.90
15426;DHT22;7812;50.072;7.036;2024-02-04T11:39:54;9.80;99.90
15426;DHT22;7812;50.072;7.036;2024-02-04T11:42:23;9.70;99.90
15426;DHT22;7812;50.072;7.036;2024-02-04T11:44:49;9.70;99.90
15426;DHT22;7812;50.072;7.036;2024-02-04T11:47:25;9.80;99.90
15426;DHT22;7812;50.072;7.036;2024-02-04T11:49:58;9.90;99.90
15426;DHT22;7812;50.072;7.036;2024-02-04T11:52:27;9.90;99.90
15426;DHT22;7812;50.072;7.036;2024-02-04T11:54:53;9.80;99.90
15426;DHT22;7812;50.072;7.036;2024-02-04T11:57:19;9.90;99.90
15426;DHT22;7812;50.072;7.036;2024-02-04T11:59:46;9.80;99.90
15426;DHT22;7812;50.072;7.036;2024-02-04T12:02:15;9.80;99.90
15426;DHT22;7812;50.072;7.036;2024-02-04T12:04:42;9.80;99.90
15426;DHT22;7812;50.072;7.036;2024-02-04T12:07:09;9.80;99.90
15426;DHT22;7812;50.072;7.036;2024-02-04T12:09:35;9.90;99.90
15426;DHT22;7812;50.072;7.036;2024-02-04T12:12:02;9.80;99.90
15426;DHT22;7812;50.072;7.036;2024-02-04T12:14:31;9.80;99.90
15426;DHT22;7812;50.072;7.036;2024-02-04T12:16:57;9.90;99.90
15426;DHT22;7812;50.072;7.036;2024-02-04T12:19:24;9.80;99.90
15426;DHT22;7812;50.072;7.036;2024-02-04T12:21:50;9.80;99.90
15426;DHT22;7812;50.072;7.036;2024-02-04T12:24:16;9.90;99.90
15426;DHT22;7812;50.072;7.036;2024-02-04T12:26:42;10.00;99.90
15426;DHT22;7812;50.072;7.036;2024-02-04T12:29:12;10.10;99.90
15426;DHT22;7812;50.072;7.036;2024-02-04T12:31:38;10.00;99.90
15426;DHT22;7812;50.072;7.036;2024-02-04T12:34:04;10.00;99.90
15426;DHT22;7812;50.072;7.036;2024-02-04T12:36:31;10.10;99.90
15426;DHT22;7812;50.072;7.036;2024-02-04T12:39:02;10.00;99.90
15426;DHT22;7812;50.072;7.036;2024-02-04T12:41:29;10.00;99.90
15426;DHT22;7812;50.072;7.036;2024-02-04T12:43:57;10.00;99.90
15426;DHT22;7812;50.072;7.036;2024-02-04T12:46:26;10.00;99.90
15426;DHT22;7812;50.072;7.036;2024-02-04T12:48:58;10.00;99.90
15426;DHT22;7812;50.072;7.036;2024-02-04T12:51:31;10.00;99.90
15426;DHT22;7812;50.072;7.036;2024-02-04T12:54:09;10.00;99.90
15426;DHT22;7812;50.072;7.036;2024-02-04T12:56:48;9.90;99.90
15426;DHT22;7812;50.072;7.036;2024-02-04T12:59:31;9.90;99.90
15426;DHT22;7812;50.072;7.036;2024-02-04T13:01:59;9.90;99.90
15426;DHT22;7812;50.072;7.036;2024-02-04T13:04:26;10.00;99.90
15426;DHT22;7812;50.072;7.036;2024-02-04T13:06:52;10.00;99.90
15426;DHT22;7812;50.072;7.036;2024-02-04T13:09:18;10.00;99.90
15426;DHT22;7812;50.072;7.036;2024-02-04T13:11:45;10.10;99.90
15426;DHT22;7812;50.072;7.036;2024-02-04T13:14:11;10.10;99.90
15426;DHT22;7812;50.072;7.036;2024-02-04T13:16:37;10.00;99.90
15426;DHT22;7812;50.072;7.036;2024-02-04T13:19:03;10.10;99.90
15426;DHT22;7812;50.072;7.036;2024-02-04T13:21:29;10.10;99.90
15426;DHT22;7812;50.072;7.036;2024-02-04T13:23:56;10.20;99.90
15426;DHT22;7812;50.072;7.036;2024-02-04T13:26:22;10.10;99.90
15426;DHT22;7812;50.072;7.036;2024-02-04T13:28:48;10.10;99.90
15426;DHT22;7812;50.072;7.036;2024-02-04T13:31:14;10.10;99.90
15426;DHT22;7812;50.072;7.036;2024-02-04T13:33:40;10.10;99.90
15426;DHT22;7812;50.072;7.036;2024-02-04T13:36:07;10.10;99.90
15426;DHT22;7812;50.072;7.036;2024-02-04T13:38:33;10.10;99.90
15426;DHT22;7812;50.072;7.036;2024-02-04T13:40:59;10.20;99.90
15426;DHT22;7812;50.072;7.036;2024-02-04T13:43:25;10.20;99.90
15426;DHT22;7812;50.072;7.036;2024-02-04T13:45:50;10.20;99.90
15426;DHT22;7812;50.072;7.036;2024-02-04T13:48:16;10.20;99.90
15426;DHT22;7812;50.072;7.036;2024-02-04T13:50:43;10.30;99.90
15426;DHT22;7812;50.072;7.036;2024-02-04T13:53:10;10.30;99.90
15426;DHT22;7812;50.072;7.036;2024-02-04T13:55:37;10.20;99.90
15426;DHT22;7812;50.072;7.036;2024-02-04T13:58:03;10.30;99.90
15426;DHT22;7812;50.072;7.036;2024-02-04T14:00:29;10.30;99.90
15426;DHT22;7812;50.072;7.036;2024-02-04T14:02:55;10.30;99.90
15426;DHT22;7812;50.072;7.036;2024-02-04T14:05:20;10.40;99.90
15426;DHT22;7812;50.072;7.036;2024-02-04T14:07:46;10.40;99.90
15426;DHT22;7812;50.072;7.036;2024-02-04T14:10:12;10.40;99.90
15426;DHT22;7812;50.072;7.036;2024-02-04T14:12:40;10.40;99.90
15426;DHT22;7812;50.072;7.036;2024-02-04T14:15:09;10.40;99.90
15426;DHT22;7812;50.072;7.036;2024-02-04T14:17:35;10.40;99.90
15426;DHT22;7812;50.072;7.036;2024-02-04T14:20:01;10.40;99.90
15426;DHT22;7812;50.072;7.036;2024-02-04T14:22:30;10.40;99.90
15426;DHT22;7812;50.072;7.036;2024-02-04T14:24:56;10.30;99.90
15426;DHT22;7812;50.072;7.036;2024-02-04T14:27:22;10.30;99.90
15426;DHT22;7812;50.072;7.036;2024-02-04T14:29:48;10.40;99.90
15426;DHT22;7812;50.072;7.036;2024-02-04T14:32:14;10.30;99.90
15426;DHT22;7812;50.072;7.036;2024-02-04T14:34:40;10.30;99.90
15426;DHT22;7812;50.072;7.036;2024-02-04T14:37:06;10.30;99.90
15426;DHT22;7812;50.072;7.036;2024-02-04T14:39:32;10.30;99.90
15426;DHT22;7812;50.072;7.036;2024-02-04T14:41:58;10.30;99.90
15426;DHT22;7812;50.072;7.036;2024-02-04T14:44:24;10.30;99.90
15426;DHT22;7812;50.072;7.036;2024-02-04T14:46:50;10.30;99.90
15426;DHT22;7812;50.072;7.036;2024-02-04T14:49:16;10.30;99.90
15426;DHT22;7812;50.072;7.036;2024-02-04T14:51:42;10.30;99.90
15426;DHT22;7812;50.072;7.036;2024-02-04T14:54:09;10.30;99.90
15426;DHT22;7812;50.072;7.036;2024-02-04T14:56:39;10.40;99.90
15426;DHT22;7812;50.072;7.036;2024-02-04T14:59:09;10.40;99.90
15426;DHT22;7812;50.072;7.036;2024-02-04T15:01:36;10.40;99.90
15426;DHT22;7812;50.072;7.036;2024-02-04T15:04:03;10.30;99.90
15426;DHT22;7812;50.072;7.036;2024-02-04T15:06:30;10.30;99.90
15426;DHT22;7812;50.072;7.036;2024-02-04T15:09:00;10.30;99.90
15426;DHT22;7812;50.072;7.036;2024-02-04T15:11:29;10.30;99.90
15426;DHT22;7812;50.072;7.036;2024-02-04T15:13:58;10.40;99.90
15426;DHT22;7812;50.072;7.036;2024-02-04T15:16:24;10.40;99.90
15426;DHT22;7812;50.072;7.036;2024-02-04T15:18:50;10.40;99.90
15426;DHT22;7812;50.072;7.036;2024-02-04T15:21:16;10.30;99.90
15426;DHT22;7812;50.072;7.036;2024-02-04T15:23:43;10.30;99.90
15426;DHT22;7812;50.072;7.036;2024-02-04T15:26:12;10.30;99.90
15426;DHT22;7812;50.072;7.036;2024-02-04T15:28:41;10.30;99.90
15426;DHT22;7812;50.072;7.036;2024-02-04T15:31:07;10.30;99.90
15426;DHT22;7812;50.072;7.036;2024-02-04T15:33:34;10.30;99.90
15426;DHT22;7812;50.072;7.036;2024-02-04T15:36:00;10.30;99.90
15426;DHT22;7812;50.072;7.036;2024-02-04T15:38:26;10.30;99.90
15426;DHT22;7812;50.072;7.036;2024-02-04T15:40:54;10.30;99.90
15426;DHT22;7812;50.072;7.036;2024-02-04T15:43:20;10.30;99.90
15426;DHT22;7812;50.072;7.036;2024-02-04T15:45:46;10.30;99.90
15426;DHT22;7812;50.072;7.036;2024-02-04T15:48:15;10.10;99.90
15426;DHT22;7812;50.072;7.036;2024-02-04T15:50:42;10.10;99.90
15426;DHT22;7812;50.072;7.036;2024-02-04T15:53:08;10.10;99.90
15426;DHT22;7812;50.072;7.036;2024-02-04T15:55:35;10.10;99.90
15426;DHT22;7812;50.072;7.036;2024-02-04T15:58:03;10.10;99.90
15426;DHT22;7812;50.072;7.036;2024-02-04T16:00:30;10.20;99.90
15426;DHT22;7812;50.072;7.036;2024-02-04T16:02:57;10.10;99.90
15426;DHT22;7812;50.072;7.036;2024-02-04T16:05:24;10.10;99.90